Time;durP1;ratioP1;P1;durP2;ratioP2;P2;SDS_P1;SDS_P2;PMS_P1;PMS_P2;Temp;Humidity;BMP_temperature;BMP_pressure;BME280_temperature;BME280_humidity;BME280_pressure;Samples;Min_cycle;Max_cycle;Signal;HPM_P1;HPM_P2
2022/05/23 00:00:45;;;;;;;9.90;4.97;;;;;;;;;;4975809;28;20077;-67
2022/05/23 00:03:10;;;;;;;7.07;4.55;;;22.80;95.90;;;;;;4971603;28;20037;-67
2022/05/23 00:05:36;;;;;;;5.82;4.18;;;23.00;96.10;;;;;;4975054;28;20030;-67
2022/05/23 00:08:03;;;;;;;15.65;5.70;;;22.90;95.70;;;;;;4975402;28;20117;-66
2022/05/23 00:10:29;;;;;;;7.18;4.47;;;;;;;;;;4975639;28;20125;-67
2022/05/23 00:12:55;;;;;;;7.97;5.82;;;;;;;;;;4971911;28;20587;-67
2022/05/23 00:15:21;;;;;;;10.25;5.28;;;;;;;;;;4972485;28;20034;-67
2022/05/23 00:17:47;;;;;;;7.43;4.45;;;;;;;;;;4973246;28;20040;-68
2022/05/23 00:20:15;;;;;;;6.07;5.47;;;;;;;;;;4975307;28;20440;-66
2022/05/23 00:22:41;;;;;;;9.38;5.03;;;;;;;;;;4975475;28;20100;-67
2022/05/23 00:25:09;;;;;;;11.02;5.68;;;23.00;78.10;;;;;;4976879;28;20399;-67
2022/05/23 00:27:37;;;;;;;11.93;5.15;;;;;;;;;;4981888;28;20026;-67
2022/05/23 00:30:04;;;;;;;9.93;5.05;;;;;;;;;;4975337;28;20069;-66
2022/05/23 00:35:18;;;;;;;16.85;4.82;;;;;;;;;;4976385;28;20154;-67
2022/05/23 00:37:44;;;;;;;6.90;5.25;;;;;;;;;;4978991;28;20054;-67
2022/05/23 00:40:30;;;;;;;7.65;4.68;;;22.90;81.10;;;;;;4979128;28;20088;-67
2022/05/23 00:43:15;;;;;;;10.40;4.35;;;;;;;;;;4994851;28;20507;-67
2022/05/23 00:45:45;;;;;;;7.85;4.97;;;;;;;;;;5009097;28;20034;-66
2022/05/23 00:48:11;;;;;;;10.70;5.25;;;;;;;;;;4993376;28;20048;-66
2022/05/23 00:50:40;;;;;;;13.90;6.85;;;;;;;;;;4995251;28;20030;-67
2022/05/23 00:53:08;;;;;;;11.80;4.97;;;;;;;;;;4997824;28;20030;-67
2022/05/23 00:55:38;;;;;;;14.93;7.65;;;;;;;;;;4999892;28;20120;-67
2022/05/23 00:58:08;;;;;;;7.40;5.32;;;;;;;;;;5006170;28;20022;-67
2022/05/23 01:00:35;;;;;;;20.38;4.93;;;;;;;;;;4993615;28;20519;-68
2022/05/23 01:03:07;;;;;;;5.03;4.57;;;;;;;;;;5007260;28;20109;-65
2022/05/23 01:05:35;;;;;;;18.13;5.72;;;;;;;;;;5005424;28;20386;-68
2022/05/23 01:08:03;;;;;;;7.47;5.40;;;;;;;;;;5008026;28;20040;-66
2022/05/23 01:10:30;;;;;;;13.75;5.80;;;;;;;;;;5008338;28;20134;-67
2022/05/23 01:12:56;;;;;;;10.15;5.60;;;22.60;93.80;;;;;;4997631;28;20038;-67
2022/05/23 01:15:24;;;;;;;8.43;5.15;;;;;;;;;;4994419;28;20169;-68
2022/05/23 01:17:50;;;;;;;12.18;5.28;;;;;;;;;;4993038;28;20034;-68
2022/05/23 01:20:16;;;;;;;10.63;5.32;;;22.80;94.60;;;;;;4986727;28;20084;-67
2022/05/23 01:22:49;;;;;;;7.50;4.35;;;22.80;94.50;;;;;;4978212;28;20554;-68
2022/05/23 01:25:17;;;;;;;6.68;4.85;;;22.70;79.70;;;;;;4977645;28;20034;-68
2022/05/23 01:27:44;;;;;;;10.15;6.13;;;;;;;;;;4979419;28;20101;-66
2022/05/23 01:30:11;;;;;;;16.33;6.07;;;;;;;;;;4973983;28;20041;-67
2022/05/23 01:32:38;;;;;;;11.73;6.65;;;;;;;;;;4977343;28;20464;-67
2022/05/23 01:35:05;;;;;;;5.75;4.78;;;;;;;;;;4977742;28;20125;-66
2022/05/23 01:37:31;;;;;;;4.97;4.53;;;;;;;;;;4977393;28;20038;-68
2022/05/23 01:39:57;;;;;;;8.48;5.07;;;;;;;;;;4977356;28;20058;-68
2022/05/23 01:42:23;;;;;;;5.95;5.38;;;;;;;;;;4974716;28;20082;-67
2022/05/23 01:44:49;;;;;;;8.88;4.18;;;;;;;;;;4975468;28;20425;-68
2022/05/23 01:47:17;;;;;;;5.40;4.90;;;;;;;;;;4978698;28;20034;-67
2022/05/23 01:49:43;;;;;;;8.02;5.35;;;;;;;;;;4978502;28;20050;-65
2022/05/23 01:52:10;;;;;;;12.35;4.97;;;;;;;;;;4977940;28;20465;-66
2022/05/23 01:54:36;;;;;;;16.97;5.47;;;;;;;;;;4976245;28;20049;-67
2022/05/23 01:57:03;;;;;;;9.75;6.35;;;;;;;;;;4973808;28;20069;-66
2022/05/23 02:02:14;;;;;;;5.68;5.05;;;;;;;;;;4975387;28;20038;-67
2022/05/23 02:04:40;;;;;;;15.32;5.53;;;;;;;;;;4977271;28;20035;-67
2022/05/23 02:07:06;;;;;;;6.22;5.07;;;22.70;93.00;;;;;;4977261;28;20043;-67
2022/05/23 02:09:33;;;;;;;13.77;5.38;;;;;;;;;;4975335;28;20058;-67
2022/05/23 02:11:59;;;;;;;12.23;5.13;;;;;;;;;;4975106;28;20027;-67
2022/05/23 02:14:25;;;;;;;6.75;6.03;;;;;;;;;;4990948;28;20022;-67
2022/05/23 02:16:51;;;;;;;9.85;4.70;;;;;;;;;;4984814;28;20022;-67
2022/05/23 02:19:17;;;;;;;9.30;6.00;;;;;;;;;;4981218;28;20507;-68
2022/05/23 02:21:43;;;;;;;11.13;5.60;;;;;;;;;;4980034;28;20098;-67
2022/05/23 02:24:10;;;;;;;12.70;5.65;;;;;;;;;;4972523;28;20457;-68
2022/05/23 02:26:35;;;;;;;8.02;5.28;;;22.50;92.90;;;;;;4976130;28;20151;-67
2022/05/23 02:29:02;;;;;;;7.05;5.43;;;;;;;;;;4980363;28;20066;-67
2022/05/23 02:31:28;;;;;;;5.82;5.28;;;22.30;92.80;;;;;;4982040;28;20391;-68
2022/05/23 02:33:55;;;;;;;8.57;5.23;;;;;;;;;;4976760;28;20025;-67
2022/05/23 02:36:21;;;;;;;12.30;5.10;;;;;;;;;;4974527;28;20072;-66
2022/05/23 02:38:47;;;;;;;6.63;4.10;;;;;;;;;;4970938;28;20026;-67
2022/05/23 02:41:13;;;;;;;9.65;5.60;;;;;;;;;;4977004;28;20089;-66
2022/05/23 02:43:39;;;;;;;9.48;6.50;;;;;;;;;;4976467;28;20053;-67
2022/05/23 02:46:05;;;;;;;12.05;6.07;;;;;;;;;;4978983;28;20487;-67
2022/05/23 02:48:31;;;;;;;10.43;5.82;;;;;;;;;;4986059;28;20043;-67
2022/05/23 02:50:57;;;;;;;5.10;4.68;;;;;;;;;;4973027;28;20027;-66
2022/05/23 02:53:23;;;;;;;7.97;5.88;;;;;;;;;;4973029;28;20045;-66
2022/05/23 02:55:49;;;;;;;11.68;5.13;;;;;;;;;;4977641;28;20038;-65
2022/05/23 02:58:15;;;;;;;5.68;5.10;;;;;;;;;;4975937;28;20037;-67
2022/05/23 03:00:41;;;;;;;8.27;5.65;;;;;;;;;;4973418;28;20031;-67
2022/05/23 03:03:09;;;;;;;8.75;5.40;;;;;;;;;;4982196;28;20081;-67
2022/05/23 03:05:45;;;;;;;5.75;5.22;;;;;;;;;;4975549;28;20150;-67
2022/05/23 03:08:14;;;;;;;8.23;4.97;;;21.60;80.30;;;;;;4976306;28;20035;-67
2022/05/23 03:10:40;;;;;;;7.60;4.90;;;;;;;;;;4975944;28;20042;-67
2022/05/23 03:13:07;;;;;;;9.23;4.30;;;;;;;;;;4976322;28;20452;-68
2022/05/23 03:15:33;;;;;;;5.82;4.45;;;;;;;;;;4973309;28;20050;-67
2022/05/23 03:17:59;;;;;;;17.10;5.63;;;;;;;;;;4971479;28;20037;-68
2022/05/23 03:20:25;;;;;;;9.38;3.90;;;;;;;;;;4987466;28;20118;-67
2022/05/23 03:28:20;;;;;;;16.20;4.78;;;;;;;;;;4975635;28;20050;-68
2022/05/23 03:30:46;;;;;;;8.75;4.78;;;;;;;;;;4976057;28;20066;-67
2022/05/23 03:33:12;;;;;;;10.30;3.92;;;;;;;;;;4973293;28;20030;-66
2022/05/23 03:35:39;;;;;;;14.82;5.38;;;;;;;;;;4971084;28;20037;-66
2022/05/23 03:38:06;;;;;;;7.63;4.70;;;21.10;81.40;;;;;;4972788;28;20061;-68
2022/05/23 03:40:33;;;;;;;9.70;3.90;;;;;;;;;;4976004;28;20035;-66
2022/05/23 03:43:00;;;;;;;7.00;4.15;;;;;;;;;;4976315;28;20039;-66
2022/05/23 03:45:27;;;;;;;4.57;3.33;;;;;;;;;;4973646;28;20042;-67
2022/05/23 03:47:54;;;;;;;9.48;3.45;;;20.90;84.20;;;;;;4973042;28;20567;-67
2022/05/23 03:50:21;;;;;;;7.97;4.65;;;;;;;;;;4975283;28;20042;-67
2022/05/23 03:52:47;;;;;;;9.45;3.95;;;;;;;;;;4980934;28;20042;-66
2022/05/23 03:55:13;;;;;;;8.68;4.10;;;;;;;;;;4983292;28;20408;-66
2022/05/23 03:57:39;;;;;;;12.05;4.93;;;;;;;;;;4975111;28;20018;-67
2022/05/23 04:00:07;;;;;;;7.40;4.53;;;20.50;84.10;;;;;;4975580;28;20031;-67
2022/05/23 04:02:33;;;;;;;5.38;4.85;;;;;;;;;;4979160;28;20050;-68
2022/05/23 04:05:00;;;;;;;5.82;3.95;;;;;;;;;;4978791;28;20564;-67
2022/05/23 04:07:26;;;;;;;7.07;4.30;;;;;;;;;;4980157;28;20023;-67
2022/05/23 04:09:52;;;;;;;5.03;3.63;;;20.50;97.40;;;;;;4979736;28;20081;-67
2022/05/23 04:12:18;;;;;;;11.88;4.13;;;;;;;;;;4976462;28;20082;-67
2022/05/23 04:14:44;;;;;;;9.90;4.75;;;;;;;;;;4977678;28;20404;-66
2022/05/23 04:17:10;;;;;;;10.68;4.18;;;;;;;;;;4979791;28;20031;-68
2022/05/23 04:19:36;;;;;;;7.28;3.28;;;20.60;97.40;;;;;;4979084;28;20518;-67
2022/05/23 04:22:02;;;;;;;7.07;4.22;;;;;;;;;;4983584;28;20098;-67
2022/05/23 04:24:29;;;;;;;5.90;4.05;;;;;;;;;;4977157;28;20022;-67
2022/05/23 04:26:56;;;;;;;10.85;4.32;;;20.60;85.80;;;;;;4976784;28;20066;-67
2022/05/23 04:29:23;;;;;;;8.82;4.40;;;;;;;;;;4991445;28;20515;-68
2022/05/23 04:31:49;;;;;;;8.00;4.33;;;;;;;;;;4981642;28;20027;-67
2022/05/23 04:37:00;;;;;;;5.38;4.85;;;;;;;;;;4979875;28;20049;-67
2022/05/23 04:39:26;;;;;;;9.95;5.80;;;;;;;;;;4976768;28;20027;-67
2022/05/23 04:41:52;;;;;;;9.40;4.78;;;21.00;95.80;;;;;;4976377;28;20030;-66
2022/05/23 04:44:18;;;;;;;5.65;4.45;;;;;;;;;;4978695;28;20381;-67
2022/05/23 04:49:41;;;;;;;8.25;5.70;;;;;;;;;;4978249;28;20150;-67
2022/05/23 04:52:08;;;;;;;22.35;5.25;;;;;;;;;;4978748;28;20089;-67
2022/05/23 04:54:34;;;;;;;12.35;4.90;;;;;;;;;;4977033;28;20117;-66
2022/05/23 04:57:00;;;;;;;6.28;4.35;;;;;;;;;;4975798;28;20027;-68
2022/05/23 04:59:26;;;;;;;14.10;6.88;;;21.50;93.20;;;;;;4977906;28;20535;-67
2022/05/23 05:01:52;;;;;;;7.22;5.82;;;21.80;94.20;;;;;;4986074;28;20018;-67
2022/05/23 05:04:17;;;;;;;8.27;6.38;;;22.00;94.10;;;;;;4984755;28;20023;-66
2022/05/23 05:06:43;;;;;;;10.55;6.55;;;;;;;;;;4978404;28;20502;-68
2022/05/23 05:09:09;;;;;;;7.93;5.28;;;;;;;;;;4988173;28;20128;-67
2022/05/23 05:11:37;;;;;;;7.97;7.22;;;;;;;;;;4990234;28;20030;-67
2022/05/23 05:14:05;;;;;;;15.63;6.15;;;;;;;;;;4986738;28;20076;-67
2022/05/23 05:16:31;;;;;;;8.50;7.03;;;;;;;;;;4982153;28;20110;-68
2022/05/23 05:18:57;;;;;;;12.98;5.47;;;;;;;;;;4977243;28;20406;-67
2022/05/23 05:21:24;;;;;;;8.73;4.23;;;;;;;;;;4981061;28;20018;-67
2022/05/23 05:23:50;;;;;;;9.38;6.88;;;;;;;;;;4984795;28;20022;-68
2022/05/23 05:26:16;;;;;;;13.95;5.68;;;22.20;94.20;;;;;;4987653;28;20053;-67
2022/05/23 05:28:42;;;;;;;7.80;5.50;;;;;;;;;;4984855;28;20066;-70
2022/05/23 05:31:10;;;;;;;10.48;5.45;;;;;;;;;;4981373;28;20039;-67
2022/05/23 05:33:39;;;;;;;8.15;5.00;;;;;;;;;;4986439;28;20035;-70
2022/05/23 05:36:10;;;;;;;7.20;6.50;;;22.30;79.60;;;;;;4985642;28;20031;-70
2022/05/23 05:38:41;;;;;;;6.07;4.57;;;;;;;;;;4988714;28;20377;-67
2022/05/23 05:41:10;;;;;;;13.93;8.27;;;;;;;;;;4987147;28;20499;-67
2022/05/23 05:43:41;;;;;;;11.43;6.10;;;;;;;;;;4985096;28;20581;-67
2022/05/23 05:46:13;;;;;;;7.78;4.50;;;;;;;;;;4984914;28;20074;-67
2022/05/23 05:48:40;;;;;;;6.18;4.65;;;;;;;;;;4987243;28;20035;-68
2022/05/23 05:51:06;;;;;;;;;;;22.20;84.10;;;;;;4987390;28;20034;-68
2022/05/23 05:53:33;;;;;;;12.23;6.65;;;;;;;;;;4988206;28;19935;-67
2022/05/23 05:56:01;;;;;;;11.13;5.30;;;;;;;;;;4977417;28;20415;-68
2022/05/23 05:58:28;;;;;;;7.30;5.07;;;21.80;84.10;;;;;;4976257;28;20038;-65
2022/05/23 06:00:54;;;;;;;6.90;5.03;;;;;;;;;;4976416;28;20511;-66
2022/05/23 06:03:20;;;;;;;9.60;5.20;;;;;;;;;;4972712;28;20066;-68
2022/05/23 06:11:27;;;;;;;8.35;5.68;;;;;;;;;;4973266;28;20131;-66
2022/05/23 06:13:55;;;;;;;6.30;4.43;;;;;;;;;;4972903;28;20054;-67
2022/05/23 06:16:21;;;;;;;11.70;3.97;;;;;;;;;;4975528;28;20081;-66
2022/05/23 06:18:48;;;;;;;7.60;4.97;;;;;;;;;;4975903;28;20546;-66
2022/05/23 06:21:14;;;;;;;6.85;3.42;;;;;;;;;;4978194;28;20648;-67
2022/05/23 06:23:40;;;;;;;15.37;5.90;;;;;;;;;;4985566;28;20034;-66
2022/05/23 06:26:06;;;;;;;7.78;3.67;;;23.90;94.20;;;;;;4976034;28;20042;-66
2022/05/23 06:28:32;;;;;;;9.50;4.13;;;24.10;93.10;;;;;;4974997;28;20039;-65
2022/05/23 06:30:59;;;;;;;8.95;4.18;;;;;;;;;;4975220;28;20034;-66
2022/05/23 06:33:26;;;;;;;7.57;3.00;;;;;;;;;;4972723;28;20034;-66
2022/05/23 06:35:52;;;;;;;11.43;3.20;;;;;;;;;;4972979;28;20039;-66
2022/05/23 06:38:17;;;;;;;7.50;3.05;;;25.20;90.80;;;;;;4975554;28;20492;-66
2022/05/23 06:40:44;;;;;;;8.50;2.50;;;;;;;;;;4990644;28;20036;-69
2022/05/23 06:43:17;;;;;;;9.95;2.92;;;25.50;75.60;;;;;;5056188;28;20489;-70
2022/05/23 06:45:43;;;;;;;5.32;4.40;;;;;;;;;;5059893;28;20047;-69
2022/05/23 06:48:09;;;;;;;7.80;3.37;;;;;;;;;;5059631;28;20469;-69
2022/05/23 06:50:35;;;;;;;10.00;2.78;;;;;;;;;;5054181;28;20032;-70
2022/05/23 06:53:01;;;;;;;4.23;3.03;;;;;;;;;;5058620;28;20032;-70
2022/05/23 06:55:28;;;;;;;5.90;3.07;;;;;;;;;;5049387;28;20036;-71
2022/05/23 06:57:54;;;;;;;4.97;2.58;;;;;;;;;;5054747;28;20134;-70
2022/05/23 07:00:20;;;;;;;6.32;2.35;;;27.60;69.80;;;;;;5059209;28;20033;-70
2022/05/23 07:02:46;;;;;;;4.00;2.58;;;;;;;;;;5050827;28;20060;-69
2022/05/23 07:13:26;;;;;;;8.35;3.17;;;26.70;67.90;;;;;;5055206;28;20037;-68
2022/05/23 07:15:55;;;;;;;11.05;3.03;;;26.80;80.20;;;;;;5053551;28;20053;-69
2022/05/23 07:18:22;;;;;;;6.20;2.85;;;;;;;;;;5052453;28;20052;-68
2022/05/23 07:20:48;;;;;;;2.88;1.55;;;;;;;;;;5059484;28;20520;-69
2022/05/23 07:23:15;;;;;;;7.93;2.33;;;;;;;;;;5058506;28;20506;-69
2022/05/23 07:25:41;;;;;;;8.40;2.72;;;27.30;59.60;;;;;;5057667;28;20025;-69
2022/05/23 07:28:07;;;;;;;10.13;2.30;;;;;;;;;;5054179;28;20040;-70
2022/05/23 07:30:33;;;;;;;9.80;3.05;;;;;;;;;;5057938;28;20464;-68
2022/05/23 07:32:59;;;;;;;4.45;2.05;;;;;;;;;;5060050;28;20429;-69
2022/05/23 07:35:25;;;;;;;4.20;1.77;;;27.50;60.20;;;;;;5059406;28;20032;-68
2022/05/23 07:37:51;;;;;;;14.68;2.90;;;27.40;67.40;;;;;;5053008;28;20025;-68
2022/05/23 07:40:18;;;;;;;7.13;2.40;;;27.00;65.20;;;;;;5059100;28;20025;-67
2022/05/23 07:42:44;;;;;;;6.85;2.47;;;26.80;79.70;;;;;;5055297;28;21027;-68
2022/05/23 07:45:10;;;;;;;5.23;1.80;;;;;;;;;;5057601;28;20116;-68
2022/05/23 07:47:36;;;;;;;9.43;1.60;;;26.80;79.40;;;;;;5052343;28;20032;-68
2022/05/23 07:50:07;;;;;;;9.83;2.63;;;26.90;61.90;;;;;;5054132;28;20509;-67
2022/05/23 07:52:33;;;;;;;3.83;2.15;;;;;;;;;;5057412;28;20485;-69
2022/05/23 08:00:34;;;;;;;10.65;1.65;;;27.00;77.60;;;;;;5045584;28;20055;-69
2022/05/23 08:03:00;;;;;;;9.25;2.97;;;;;;;;;;5045165;28;20547;-69
2022/05/23 08:05:27;;;;;;;6.40;1.60;;;;;;;;;;5046375;28;20029;-68
2022/05/23 08:07:52;;;;;;;8.73;1.98;;;28.70;73.40;;;;;;5041124;28;20279;-68
2022/05/23 08:10:18;;;;;;;5.90;1.47;;;;;;;;;;5044153;28;20051;-70
2022/05/23 08:12:52;;;;;;;2.85;1.80;;;29.10;54.00;;;;;;5043718;28;20502;-70
2022/05/23 08:15:20;;;;;;;11.32;2.35;;;29.20;53.90;;;;;;5039516;28;20029;-70
2022/05/23 08:17:46;;;;;;;4.55;2.50;;;;;;;;;;5041718;28;20032;-69
2022/05/23 08:20:12;;;;;;;7.18;1.63;;;31.10;68.40;;;;;;5044126;28;20075;-69
2022/05/23 08:22:39;;;;;;;5.20;1.27;;;;;;;;;;5042380;28;20041;-69
2022/05/23 08:25:05;;;;;;;5.43;1.70;;;33.40;45.70;;;;;;5041257;28;20425;-72
2022/05/23 08:27:32;;;;;;;3.33;0.95;;;;;;;;;;5034480;28;20596;-72
2022/05/23 08:29:58;;;;;;;8.63;1.50;;;33.50;60.30;;;;;;5044894;28;20017;-73
2022/05/23 08:32:24;;;;;;;6.18;1.55;;;;;;;;;;5042675;28;20387;-73
2022/05/23 08:34:50;;;;;;;8.52;1.73;;;;;;;;;;5039153;28;20053;-72
2022/05/23 08:37:16;;;;;;;6.38;1.83;;;33.10;61.20;;;;;;5037916;28;20041;-71
2022/05/23 08:39:42;;;;;;;6.07;2.30;;;;;;;;;;5043813;28;20505;-72
2022/05/23 08:42:39;;;;;;;7.07;1.42;;;32.50;63.40;;;;;;5043651;28;20794;-72
2022/05/23 08:45:18;;;;;;;4.70;1.50;;;32.70;44.70;;;;;;5045724;28;20103;-72
2022/05/23 08:47:49;;;;;;;9.07;1.33;;;32.50;46.80;;;;;;5041639;28;20033;-73
2022/05/23 08:50:15;;;;;;;2.78;1.10;;;;;;;;;;5044658;28;20128;-73
2022/05/23 08:52:47;;;;;;;8.90;2.75;;;;;;;;;;5041112;28;20100;-72
2022/05/23 08:55:14;;;;;;;7.65;1.55;;;;;;;;;;5042848;28;20037;-71
2022/05/23 08:57:40;;;;;;;4.10;1.40;;;;;;;;;;5041310;28;20725;-72
2022/05/23 09:00:14;;;;;;;4.70;1.67;;;32.70;59.50;;;;;;5044410;28;20172;-73
2022/05/23 09:02:54;;;;;;;4.88;1.75;;;33.70;43.50;;;;;;5046612;28;20041;-73
2022/05/23 09:05:23;;;;;;;5.68;3.25;;;33.10;44.50;;;;;;5030689;28;20040;-73
2022/05/23 09:07:56;;;;;;;3.53;1.83;;;31.70;45.40;;;;;;5039239;28;20037;-72
2022/05/23 09:10:38;;;;;;;7.50;1.27;;;31.20;45.90;;;;;;5039175;28;20039;-71
2022/05/23 09:13:07;;;;;;;5.75;1.80;;;;;;;;;;5044284;28;20031;-72
2022/05/23 09:15:33;;;;;;;6.35;2.00;;;;;;;;;;5044450;28;20123;-73
2022/05/23 09:18:00;;;;;;;6.18;2.05;;;;;;;;;;5037422;28;20482;-74
2022/05/23 09:20:33;;;;;;;4.90;1.65;;;;;;;;;;5047032;28;20052;-74
2022/05/23 09:23:06;;;;;;;4.82;1.90;;;29.60;46.80;;;;;;5045096;28;20577;-74
2022/05/23 09:25:32;;;;;;;4.95;1.67;;;;;;;;;;5034708;28;20495;-75
2022/05/23 09:28:22;;;;;;;8.37;1.50;;;31.00;44.00;;;;;;5037757;28;20051;-75
2022/05/23 09:31:05;;;;;;;7.07;1.50;;;30.50;46.20;;;;;;5042932;28;20283;-71
2022/05/23 09:33:32;;;;;;;9.45;1.70;;;;;;;;;;5038199;28;20025;-72
2022/05/23 09:36:09;;;;;;;4.88;1.20;;;;;;;;;;5043704;28;20047;-75
2022/05/23 09:38:44;;;;;;;9.32;1.33;;;;;;;;;;5042384;28;20025;-74
2022/05/23 09:41:27;;;;;;;4.18;1.30;;;;;;;;;;5043197;28;20067;-71
2022/05/23 09:49:30;;;;;;;4.15;1.90;;;;;;;;;;5036159;28;20055;-71
2022/05/23 09:52:35;;;;;;;3.42;1.73;;;;;;;;;;5040537;28;20025;-70
2022/05/23 09:55:12;;;;;;;8.52;1.90;;;26.60;49.40;;;;;;5000550;28;20029;-70
2022/05/23 09:57:40;;;;;;;5.57;1.55;;;;;;;;;;4997096;28;20042;-70
2022/05/23 10:00:26;;;;;;;5.60;0.90;;;;;;;;;;5002698;28;21104;-70
2022/05/23 10:02:57;;;;;;;2.97;1.10;;;26.10;50.50;;;;;;5002237;28;20529;-70
2022/05/23 10:05:25;;;;;;;7.30;1.52;;;;;;;;;;5003383;28;20124;-70
2022/05/23 10:07:54;;;;;;;5.13;3.10;;;26.20;51.80;;;;;;4998147;28;20030;-72
2022/05/23 10:10:23;;;;;;;7.32;1.80;;;;;;;;;;5002151;28;20053;-72
2022/05/23 10:12:49;;;;;;;2.80;1.25;;;;;;;;;;5001786;28;20502;-70
2022/05/23 10:15:24;;;;;;;4.65;1.63;;;;;;;;;;5001277;28;20033;-68
2022/05/23 10:18:04;;;;;;;5.05;1.20;;;;;;;;;;4999586;28;20144;-73
2022/05/23 10:20:35;;;;;;;9.40;1.67;;;;;;;;;;5004152;28;20110;-68
2022/05/23 10:23:04;;;;;;;4.38;1.90;;;;;;;;;;4997347;28;20065;-69
2022/05/23 10:25:56;;;;;;;4.82;1.42;;;;;;;;;;5001291;28;20038;-69
2022/05/23 10:28:51;;;;;;;2.30;1.35;;;26.20;54.10;;;;;;4930098;28;20039;-67
2022/05/23 10:31:23;;;;;;;11.60;1.50;;;;;;;;;;4961936;28;20039;-68
2022/05/23 10:33:53;;;;;;;4.97;1.52;;;;;;;;;;4962644;28;20090;-69
2022/05/23 10:36:21;;;;;;;3.53;1.17;;;;;;;;;;4959324;28;20472;-69
2022/05/23 10:44:24;;;;;;;8.00;1.05;;;;;;;;;;4964538;28;20541;-68
2022/05/23 10:46:54;;;;;;;11.40;3.80;;;;;;;;;;4958585;28;20035;-69
2022/05/23 10:49:37;;;;;;;6.70;1.83;;;26.30;54.60;;;;;;4961844;28;20066;-68
2022/05/23 10:52:27;;;;;;;3.67;2.00;;;26.10;56.30;;;;;;4962075;28;20053;-69
2022/05/23 10:55:09;;;;;;;5.30;2.45;;;;;;;;;;4963460;28;20034;-69
2022/05/23 10:57:35;;;;;;;6.45;2.03;;;;;;;;;;4957866;28;20497;-69
2022/05/23 11:00:12;;;;;;;4.22;2.05;;;;;;;;;;4963713;28;20057;-68
2022/05/23 11:02:37;;;;;;;;;;;24.70;55.90;;;;;;4964736;28;20070;-68
2022/05/23 11:05:03;;;;;;;4.43;1.92;;;;;;;;;;4990171;28;19913;-68
2022/05/23 11:07:57;;;;;;;2.42;0.90;;;24.00;56.00;;;;;;5030992;28;20477;-69
2022/05/23 11:10:53;;;;;;;1.33;0.82;;;23.70;57.00;;;;;;5032505;28;20067;-75
2022/05/23 11:13:45;;;;;;;6.18;1.42;;;;;;;;;;5035968;28;20130;-77
2022/05/23 11:16:31;;;;;;;7.38;2.92;;;;;;;;;;5036739;28;20525;-76
2022/05/23 11:19:15;;;;;;;6.90;3.25;;;;;;;;;;5042019;28;20529;-76
2022/05/23 11:21:56;;;;;;;5.28;4.85;;;;;;;;;;5043262;28;20048;-75
2022/05/23 11:24:33;;;;;;;7.03;4.68;;;;;;;;;;5043814;28;20441;-75
2022/05/23 11:35:28;;;;;;;12.35;2.53;;;;;;;;;;5046210;28;20073;-72
2022/05/23 11:37:57;;;;;;;2.20;1.85;;;;;;;;;;5042124;28;20136;-72
2022/05/23 11:40:25;;;;;;;4.47;2.70;;;;;;;;;;5042672;28;20083;-75
2022/05/23 11:43:03;;;;;;;1.77;1.67;;;;;;;;;;5038982;28;20087;-75
2022/05/23 11:45:57;;;;;;;4.60;1.70;;;19.50;94.30;;;;;;5043968;28;20033;-74
2022/05/23 11:48:41;;;;;;;3.22;1.90;;;;;;;;;;5035696;28;20021;-74
2022/05/23 11:51:19;;;;;;;5.68;1.85;;;;;;;;;;5040244;28;20041;-75
2022/05/23 11:54:05;;;;;;;7.15;2.35;;;19.70;95.00;;;;;;5043474;28;20031;-73
2022/05/23 11:56:39;;;;;;;2.70;2.03;;;;;;;;;;5042587;28;20041;-76
2022/05/23 11:59:09;;;;;;;2.78;1.92;;;;;;;;;;5045318;28;20033;-75
2022/05/23 12:01:36;;;;;;;6.10;2.60;;;20.70;93.20;;;;;;5041339;28;20117;-75
2022/05/23 12:04:02;;;;;;;4.32;1.70;;;;;;;;;;5044453;28;20029;-75
2022/05/23 12:06:28;;;;;;;4.50;4.20;;;;;;;;;;5046192;28;20021;-75
2022/05/23 12:09:06;;;;;;;4.13;2.58;;;;;;;;;;5045692;28;20112;-74
2022/05/23 12:11:32;;;;;;;5.50;3.95;;;;;;;;;;5044807;28;20024;-74
2022/05/23 12:14:11;;;;;;;4.40;3.53;;;;;;;;;;5039218;28;20519;-73
2022/05/23 12:16:39;;;;;;;3.90;3.60;;;;;;;;;;4992725;28;20101;-74
2022/05/23 12:19:20;;;;;;;3.63;3.40;;;22.20;90.10;;;;;;4985446;28;20142;-74
2022/05/23 12:21:48;;;;;;;4.53;3.00;;;22.10;91.60;;;;;;4986906;28;20117;-74
2022/05/23 12:24:14;;;;;;;;;;;;;;;;;;4988593;28;20041;-74
2022/05/23 12:26:40;;;;;;;4.85;2.45;;;;;;;;;;4984033;28;19913;-74
2022/05/23 12:29:25;;;;;;;3.50;2.70;;;;;;;;;;4986683;28;20096;-73
2022/05/23 12:32:11;;;;;;;2.55;2.20;;;;;;;;;;4983596;28;20459;-73
2022/05/23 12:34:42;;;;;;;3.13;2.03;;;;;;;;;;4982495;28;20026;-76
2022/05/23 12:37:14;;;;;;;3.05;2.95;;;;;;;;;;4976584;28;20050;-73
2022/05/23 12:39:45;;;;;;;10.38;1.73;;;;;;;;;;4981969;28;20066;-73
2022/05/23 12:42:30;;;;;;;3.42;1.70;;;;;;;;;;4979208;28;20056;-73
2022/05/23 12:45:08;;;;;;;2.80;2.60;;;;;;;;;;4980524;28;20038;-73
2022/05/23 12:47:37;;;;;;;2.17;1.65;;;;;;;;;;4982501;28;20049;-74
2022/05/23 12:50:11;;;;;;;2.47;2.28;;;;;;;;;;4984893;28;20033;-73
2022/05/23 12:52:56;;;;;;;1.67;1.33;;;;;;;;;;4987424;28;20065;-76
2022/05/23 12:55:40;;;;;;;1.70;1.60;;;;;;;;;;4979760;28;20092;-75
2022/05/23 12:58:16;;;;;;;2.75;1.40;;;;;;;;;;4984195;28;20046;-74
2022/05/23 13:00:48;;;;;;;2.08;1.98;;;;;;;;;;4987649;28;20040;-74
2022/05/23 13:03:46;;;;;;;3.08;2.88;;;;;;;;;;4985015;28;20073;-74
2022/05/23 13:06:18;;;;;;;2.72;2.53;;;;;;;;;;4965487;28;20137;-74
2022/05/23 13:08:47;;;;;;;2.75;2.45;;;;;;;;;;4982442;28;20125;-76
2022/05/23 13:11:17;;;;;;;4.45;2.97;;;;;;;;;;4981870;28;20034;-73
2022/05/23 13:13:45;;;;;;;6.43;2.25;;;;;;;;;;4982685;28;20480;-74
2022/05/23 13:16:24;;;;;;;4.45;1.95;;;;;;;;;;4980224;28;20152;-73
2022/05/23 13:24:50;;;;;;;1.73;1.30;;;;;;;;;;4925663;29;20055;-74
2022/05/23 13:27:25;;;;;;;1.40;1.30;;;;;;;;;;4921914;29;20872;-74
2022/05/23 13:29:54;;;;;;;3.22;2.22;;;;;;;;;;4927208;29;20168;-76
2022/05/23 13:32:21;;;;;;;1.45;1.35;;;;;;;;;;4938832;29;20091;-77
2022/05/23 13:34:48;;;;;;;6.57;2.67;;;21.60;92.40;;;;;;4925324;29;20044;-75
2022/05/23 13:37:14;;;;;;;;;;;;;;;;;;4920985;29;20063;-76
2022/05/23 13:39:47;;;;;;;2.05;1.95;;;;;;;;;;4924127;29;19929;-70
2022/05/23 13:42:20;;;;;;;3.83;3.00;;;;;;;;;;4923060;29;20036;-70
2022/05/23 13:44:46;;;;;;;2.50;2.30;;;;;;;;;;4925276;29;20039;-70
2022/05/23 13:47:18;;;;;;;3.05;2.42;;;;;;;;;;4918321;29;20048;-71
2022/05/23 13:49:52;;;;;;;5.05;2.58;;;;;;;;;;4925348;29;20504;-72
2022/05/23 13:52:23;;;;;;;2.95;2.70;;;;;;;;;;4920907;29;20038;-71
2022/05/23 13:54:51;;;;;;;2.92;2.72;;;;;;;;;;4937138;28;20042;-71
2022/05/23 13:57:39;;;;;;;3.50;3.25;;;;;;;;;;4981873;28;20125;-71
2022/05/23 14:00:09;;;;;;;5.45;2.83;;;;;;;;;;4984645;28;20101;-72
2022/05/23 14:02:47;;;;;;;4.07;3.70;;;;;;;;;;4982805;28;20042;-72
2022/05/23 14:05:14;;;;;;;2.65;2.55;;;;;;;;;;4978741;28;20044;-72
2022/05/23 14:07:43;;;;;;;3.00;2.70;;;;;;;;;;4981385;28;20105;-72
2022/05/23 14:10:10;;;;;;;11.40;3.97;;;;;;;;;;4982972;28;20446;-72
2022/05/23 14:12:37;;;;;;;2.72;2.53;;;;;;;;;;4983249;28;20423;-72
2022/05/23 14:15:04;;;;;;;3.20;2.70;;;;;;;;;;4983575;28;20069;-73
2022/05/23 14:17:38;;;;;;;2.83;2.63;;;;;;;;;;4982860;28;20132;-72
2022/05/23 14:20:25;;;;;;;2.60;2.40;;;;;;;;;;4983704;28;20512;-72
2022/05/23 14:23:03;;;;;;;4.97;3.13;;;23.10;86.30;;;;;;4984126;28;20035;-68
2022/05/23 14:25:42;;;;;;;3.30;2.05;;;23.10;86.00;;;;;;4982678;28;20125;-68
2022/05/23 14:28:08;;;;;;;4.53;2.90;;;;;;;;;;4981600;28;20077;-68
2022/05/23 14:30:35;;;;;;;7.00;2.17;;;;;;;;;;4986344;28;20030;-69
2022/05/23 14:33:07;;;;;;;2.22;2.03;;;;;;;;;;4985577;28;20088;-68
2022/05/23 14:35:33;;;;;;;3.22;2.28;;;;;;;;;;4985073;28;20042;-68
2022/05/23 14:37:59;;;;;;;2.65;2.45;;;;;;;;;;4980410;28;20026;-68
2022/05/23 14:40:25;;;;;;;3.08;2.30;;;;;;;;;;4984698;28;20030;-72
2022/05/23 14:42:53;;;;;;;2.42;2.22;;;;;;;;;;4983847;28;20077;-72
2022/05/23 14:45:28;;;;;;;2.83;1.60;;;23.30;82.50;;;;;;4985390;28;20092;-72
2022/05/23 14:47:57;;;;;;;1.88;1.70;;;;;;;;;;4978792;28;20037;-71
2022/05/23 14:50:29;;;;;;;2.60;2.00;;;;;;;;;;4986041;28;20031;-71
2022/05/23 14:55:51;;;;;;;2.40;2.17;;;;;;;;;;4983530;28;20049;-70
2022/05/23 15:01:18;;;;;;;1.67;1.50;;;;;;;;;;4978836;28;20045;-69
2022/05/23 15:03:45;;;;;;;10.75;1.75;;;;;;;;;;4977523;28;20037;-69
2022/05/23 15:06:11;;;;;;;2.10;1.88;;;;;;;;;;4981364;28;20487;-72
2022/05/23 15:08:38;;;;;;;2.28;1.67;;;;;;;;;;4980506;28;20033;-72
2022/05/23 15:11:05;;;;;;;8.98;3.92;;;;;;;;;;4978658;28;20035;-72
2022/05/23 15:13:35;;;;;;;2.25;2.10;;;;;;;;;;4980792;28;20026;-71
2022/05/23 15:16:15;;;;;;;2.30;2.10;;;22.70;84.10;;;;;;4986925;28;20500;-74
2022/05/23 15:18:41;;;;;;;3.92;2.10;;;;;;;;;;4984079;28;20030;-74
2022/05/23 15:21:09;;;;;;;2.70;2.50;;;;;;;;;;4989836;28;20034;-74
2022/05/23 15:23:37;;;;;;;3.03;2.78;;;;;;;;;;4989434;28;20038;-74
2022/05/23 15:26:04;;;;;;;3.20;2.90;;;;;;;;;;4986987;28;20061;-74
2022/05/23 15:28:30;;;;;;;4.22;2.30;;;;;;;;;;4983977;28;20085;-74
2022/05/23 15:30:56;;;;;;;3.50;2.42;;;;;;;;;;4988150;28;20030;-73
2022/05/23 15:33:22;;;;;;;2.60;2.40;;;;;;;;;;4986041;28;20049;-74